createdAt,value
2019-01-30T00:00:30.335Z,99.90
2019-01-30T00:03:00.410Z,99.90
2019-01-30T00:05:30.371Z,99.90
2019-01-30T00:08:00.335Z,99.90
2019-01-30T00:10:30.356Z,99.90
2019-01-30T00:13:00.321Z,99.90
2019-01-30T00:15:30.160Z,99.90
2019-01-30T00:18:00.098Z,99.90
2019-01-30T00:20:30.271Z,99.90
2019-01-30T00:23:00.114Z,99.90
2019-01-30T00:25:30.049Z,99.90
2019-01-30T00:27:59.909Z,99.90
2019-01-30T00:30:29.966Z,99.90
2019-01-30T00:32:59.870Z,99.90
2019-01-30T00:35:30.063Z,99.90
2019-01-30T00:37:59.907Z,99.90
2019-01-30T00:40:30.055Z,99.90
2019-01-30T00:42:59.910Z,99.90
2019-01-30T00:45:29.757Z,99.90
2019-01-30T00:47:59.620Z,99.90
2019-01-30T00:50:29.516Z,99.90
2019-01-30T00:52:59.362Z,99.90
2019-01-30T00:55:29.308Z,99.90
2019-01-30T00:57:59.151Z,99.90
2019-01-30T01:00:30.147Z,99.90
2019-01-30T01:03:00.000Z,99.90
2019-01-30T01:05:30.065Z,99.90
2019-01-30T01:08:00.472Z,99.90
2019-01-30T01:10:30.773Z,99.90
2019-01-30T01:13:00.629Z,99.90
2019-01-30T01:15:30.472Z,99.90
2019-01-30T01:18:00.308Z,99.90
2019-01-30T01:20:30.230Z,99.90
2019-01-30T01:23:00.083Z,99.90
2019-01-30T01:25:29.927Z,99.90
2019-01-30T01:27:59.776Z,99.90
2019-01-30T01:30:30.032Z,99.90
2019-01-30T01:32:59.946Z,99.90
2019-01-30T01:35:29.880Z,99.90
2019-01-30T01:37:59.732Z,99.90
2019-01-30T01:40:29.744Z,99.90
2019-01-30T01:42:59.606Z,99.90
2019-01-30T01:45:29.457Z,99.90
2019-01-30T01:47:59.288Z,99.90
2019-01-30T01:50:29.533Z,99.90
2019-01-30T01:52:59.369Z,99.90
2019-01-30T01:55:29.210Z,99.90
2019-01-30T01:57:59.048Z,99.90
2019-01-30T02:00:35.193Z,99.90
2019-01-30T02:03:00.496Z,99.90
2019-01-30T02:05:30.421Z,99.90
2019-01-30T02:08:00.425Z,99.90
2019-01-30T02:10:30.366Z,99.90
2019-01-30T02:13:00.224Z,99.90
2019-01-30T02:15:30.076Z,99.90
2019-01-30T02:17:59.903Z,99.90
2019-01-30T02:20:32.014Z,99.90
2019-01-30T02:23:02.079Z,99.90
2019-01-30T02:25:31.906Z,99.90
2019-01-30T02:28:01.748Z,99.90
2019-01-30T02:30:31.838Z,99.90
2019-01-30T02:33:01.805Z,99.90
2019-01-30T02:35:31.814Z,99.90
2019-01-30T02:38:01.765Z,99.90
2019-01-30T02:40:31.699Z,99.90
2019-01-30T02:43:01.561Z,99.90
2019-01-30T02:45:31.381Z,99.90
2019-01-30T02:48:01.250Z,99.90
2019-01-30T02:50:31.156Z,99.90
2019-01-30T02:53:01.013Z,99.90
2019-01-30T02:55:30.855Z,99.90
2019-01-30T02:58:00.920Z,99.90
2019-01-30T03:00:32.860Z,99.90
2019-01-30T03:03:02.720Z,99.90
2019-01-30T03:05:32.973Z,99.90
2019-01-30T03:08:02.856Z,99.90
2019-01-30T03:10:33.831Z,99.90
2019-01-30T03:13:03.676Z,99.90
2019-01-30T03:15:33.520Z,99.90
2019-01-30T03:18:03.363Z,99.90
2019-01-30T03:20:33.304Z,99.90
2019-01-30T03:23:03.264Z,99.90
2019-01-30T03:25:33.108Z,99.90
2019-01-30T03:28:02.944Z,99.90
2019-01-30T03:30:33.699Z,99.90
2019-01-30T03:33:03.674Z,99.90
2019-01-30T03:35:33.735Z,99.90
2019-01-30T03:38:03.781Z,99.90
2019-01-30T03:40:33.644Z,99.90
2019-01-30T03:43:03.506Z,99.90
2019-01-30T03:45:33.348Z,99.90
2019-01-30T03:48:03.231Z,99.90
2019-01-30T03:50:34.123Z,99.90
2019-01-30T03:53:03.984Z,99.90
2019-01-30T03:55:33.828Z,99.90
2019-01-30T03:58:03.664Z,99.90
2019-01-30T04:00:33.583Z,99.90
2019-01-30T04:03:03.438Z,99.90
2019-01-30T04:05:33.309Z,99.90
2019-01-30T04:08:03.256Z,99.90
2019-01-30T04:10:33.473Z,99.90
2019-01-30T04:13:03.445Z,99.90
2019-01-30T04:15:33.317Z,99.90
2019-01-30T04:18:03.165Z,99.90
2019-01-30T04:20:33.104Z,99.90
2019-01-30T04:23:02.962Z,99.90
2019-01-30T04:25:32.807Z,99.90
2019-01-30T04:28:02.644Z,99.90
2019-01-30T04:30:32.561Z,99.90
2019-01-30T04:33:02.416Z,99.90
2019-01-30T04:35:32.363Z,99.90
2019-01-30T04:38:02.265Z,99.90
2019-01-30T04:40:33.142Z,99.90
2019-01-30T04:43:03.052Z,99.90
2019-01-30T04:45:32.910Z,99.90
2019-01-30T04:48:02.775Z,99.90
2019-01-30T04:50:32.701Z,99.90
2019-01-30T04:53:02.551Z,99.90
2019-01-30T04:55:32.394Z,99.90
2019-01-30T04:58:02.237Z,99.90
2019-01-30T05:00:32.298Z,99.90
2019-01-30T05:03:02.145Z,99.90
2019-01-30T05:05:32.080Z,99.90
2019-01-30T05:08:02.043Z,99.90
2019-01-30T05:10:31.868Z,99.90
2019-01-30T05:13:01.727Z,99.90
2019-01-30T05:15:31.587Z,99.90
2019-01-30T05:18:01.576Z,99.90
2019-01-30T05:20:31.479Z,99.90
2019-01-30T05:23:01.395Z,99.90
2019-01-30T05:25:31.350Z,99.90
2019-01-30T05:28:01.213Z,99.90
2019-01-30T05:30:32.212Z,99.90
2019-01-30T05:33:02.341Z,99.90
2019-01-30T05:35:32.288Z,99.90
2019-01-30T05:38:02.500Z,99.90
2019-01-30T05:40:32.434Z,99.90
2019-01-30T05:43:02.420Z,99.90
2019-01-30T05:45:32.255Z,99.90
2019-01-30T05:48:02.217Z,99.90
2019-01-30T05:50:32.085Z,99.90
2019-01-30T05:53:02.043Z,99.90
2019-01-30T05:55:31.975Z,99.90
2019-01-30T05:58:01.852Z,99.90
2019-01-30T06:00:42.313Z,99.90
2019-01-30T06:03:12.153Z,99.90
2019-01-30T06:05:42.404Z,99.90
2019-01-30T06:08:12.285Z,99.90
2019-01-30T06:10:42.281Z,99.90
2019-01-30T06:13:12.120Z,99.90
2019-01-30T06:15:41.969Z,99.90
2019-01-30T06:18:11.820Z,99.90
2019-01-30T06:20:41.658Z,99.90
2019-01-30T06:23:11.506Z,99.90
2019-01-30T06:25:41.339Z,99.90
2019-01-30T06:28:11.195Z,99.90
2019-01-30T06:30:41.059Z,99.90
2019-01-30T06:33:10.921Z,99.90
2019-01-30T06:35:40.842Z,99.90
2019-01-30T06:38:11.239Z,99.90
2019-01-30T06:40:41.178Z,99.90
2019-01-30T06:43:11.236Z,99.90
2019-01-30T06:45:41.260Z,99.90
2019-01-30T06:48:11.348Z,99.90
2019-01-30T06:50:41.255Z,99.90
2019-01-30T06:53:11.388Z,99.90
2019-01-30T06:55:41.356Z,99.90
2019-01-30T06:58:11.446Z,99.90
2019-01-30T07:00:41.264Z,99.90
2019-01-30T07:03:11.230Z,99.90
2019-01-30T07:05:41.084Z,99.90
2019-01-30T07:08:10.996Z,99.90
2019-01-30T07:10:41.079Z,99.90
2019-01-30T07:13:10.970Z,99.90
2019-01-30T07:15:40.959Z,99.90
2019-01-30T07:18:11.009Z,99.90
2019-01-30T07:20:40.873Z,99.90
2019-01-30T07:23:11.156Z,99.90
2019-01-30T07:25:41.055Z,99.90
2019-01-30T07:28:11.381Z,99.90
2019-01-30T07:30:41.653Z,99.90
2019-01-30T07:33:11.684Z,99.90
2019-01-30T07:35:41.740Z,99.90
2019-01-30T07:38:11.716Z,99.90
2019-01-30T07:40:41.745Z,99.90
2019-01-30T07:43:11.984Z,99.90
2019-01-30T07:45:41.932Z,99.90
2019-01-30T07:48:11.827Z,99.90
2019-01-30T07:50:41.844Z,99.90
2019-01-30T07:53:11.986Z,99.90
2019-01-30T07:55:41.876Z,99.90
2019-01-30T07:58:11.784Z,99.90
2019-01-30T08:00:41.744Z,99.90
2019-01-30T08:03:11.651Z,99.90
2019-01-30T08:05:41.844Z,99.90
2019-01-30T08:08:12.171Z,99.90
2019-01-30T08:10:42.200Z,99.90
2019-01-30T08:13:12.231Z,99.90
2019-01-30T08:15:42.304Z,99.90
2019-01-30T08:18:12.421Z,99.90
2019-01-30T08:20:42.419Z,99.90
2019-01-30T08:23:12.583Z,99.90
2019-01-30T08:25:42.748Z,99.90
2019-01-30T08:28:13.143Z,99.90
2019-01-30T08:30:44.613Z,99.90
2019-01-30T08:33:15.206Z,99.90
2019-01-30T08:35:45.144Z,99.90
2019-01-30T08:38:15.116Z,99.90
2019-01-30T08:40:45.142Z,99.90
2019-01-30T08:43:15.024Z,99.90
2019-01-30T08:45:44.987Z,99.90
2019-01-30T08:48:14.883Z,99.90
2019-01-30T08:50:44.768Z,99.90
2019-01-30T08:53:14.791Z,99.90
2019-01-30T08:55:44.688Z,99.90
2019-01-30T08:58:14.619Z,99.90
2019-01-30T09:00:44.542Z,99.90
2019-01-30T09:03:15.291Z,99.90
2019-01-30T09:05:45.352Z,99.90
2019-01-30T09:08:15.231Z,99.90
2019-01-30T09:10:45.359Z,99.90
2019-01-30T09:13:15.436Z,99.90
2019-01-30T09:15:45.361Z,99.90
2019-01-30T09:18:15.342Z,99.90
2019-01-30T09:20:45.327Z,99.90
2019-01-30T09:23:15.330Z,99.90
2019-01-30T09:25:45.410Z,99.90
2019-01-30T09:28:15.380Z,99.90
2019-01-30T09:30:45.383Z,99.90
2019-01-30T09:33:25.346Z,99.90
2019-01-30T09:35:47.012Z,99.90
2019-01-30T09:38:17.225Z,99.90
2019-01-30T09:40:47.640Z,99.90
2019-01-30T09:43:17.558Z,99.90
2019-01-30T09:45:50.487Z,99.90
2019-01-30T09:48:20.507Z,99.90
2019-01-30T09:50:50.472Z,99.90
2019-01-30T09:53:20.356Z,99.90
2019-01-30T09:55:50.267Z,99.90
2019-01-30T09:58:20.256Z,99.90
2019-01-30T10:00:50.379Z,99.90
2019-01-30T10:03:20.476Z,99.90
2019-01-30T10:05:50.374Z,99.90
2019-01-30T10:08:20.265Z,99.90
2019-01-30T10:10:50.201Z,99.90
2019-01-30T10:13:20.140Z,99.90
2019-01-30T10:15:50.120Z,99.90
2019-01-30T10:18:21.245Z,99.90
2019-01-30T10:20:51.397Z,99.90
2019-01-30T10:23:21.414Z,99.90
2019-01-30T10:25:51.432Z,98.90
2019-01-30T10:28:21.448Z,96.00
2019-01-30T10:30:51.335Z,95.50
2019-01-30T10:33:21.464Z,95.80
2019-01-30T10:35:51.447Z,95.70
2019-01-30T10:38:21.541Z,92.70
2019-01-30T10:40:51.523Z,94.50
2019-01-30T10:43:21.508Z,92.10
2019-01-30T10:45:51.547Z,99.90
2019-01-30T10:48:21.509Z,99.90
2019-01-30T10:50:51.375Z,99.90
2019-01-30T10:53:21.332Z,99.90
2019-01-30T10:55:51.276Z,99.80
2019-01-30T10:58:21.368Z,99.90
2019-01-30T11:00:52.738Z,99.50
2019-01-30T11:03:22.799Z,99.90
2019-01-30T11:05:52.712Z,99.90
2019-01-30T11:08:22.750Z,99.90
2019-01-30T11:10:52.750Z,96.00
2019-01-30T11:13:22.940Z,95.20
2019-01-30T11:15:52.861Z,95.70
2019-01-30T11:18:23.147Z,93.50
2019-01-30T11:20:53.140Z,98.80
2019-01-30T11:23:23.156Z,98.30
2019-01-30T11:25:53.279Z,97.70
2019-01-30T11:28:23.172Z,91.80
2019-01-30T11:30:53.110Z,91.10
2019-01-30T11:33:23.131Z,86.00
2019-01-30T11:35:53.318Z,86.20
2019-01-30T11:38:23.399Z,88.60
2019-01-30T11:40:53.467Z,87.10
2019-01-30T11:43:23.456Z,88.50
2019-01-30T11:45:53.486Z,91.30
2019-01-30T11:48:23.448Z,93.80
2019-01-30T11:50:53.537Z,94.00
2019-01-30T11:53:23.415Z,96.00
2019-01-30T11:55:53.464Z,90.00
2019-01-30T11:58:23.517Z,83.50
2019-01-30T12:01:03.767Z,91.00
2019-01-30T12:03:33.678Z,90.50
2019-01-30T12:06:03.998Z,91.20
2019-01-30T12:08:34.159Z,85.00
2019-01-30T12:11:04.241Z,84.80
2019-01-30T12:13:34.357Z,84.70
2019-01-30T12:16:04.395Z,85.20
2019-01-30T12:18:35.420Z,87.00
2019-01-30T12:21:05.512Z,85.30
2019-01-30T12:23:35.463Z,86.20
2019-01-30T12:26:05.499Z,85.20
2019-01-30T12:28:35.555Z,83.00
2019-01-30T12:31:05.675Z,80.60
2019-01-30T12:33:35.930Z,80.00
2019-01-30T12:36:06.127Z,77.40
2019-01-30T12:38:36.105Z,81.80
2019-01-30T12:41:06.396Z,80.40
2019-01-30T12:43:36.363Z,76.80
2019-01-30T12:46:06.376Z,80.10
2019-01-30T12:48:36.377Z,82.50
2019-01-30T12:51:06.291Z,80.30
2019-01-30T12:53:36.202Z,80.40
2019-01-30T12:56:06.368Z,74.00
2019-01-30T12:58:36.312Z,77.60
2019-01-30T13:01:06.355Z,71.70
2019-01-30T13:03:36.346Z,75.50
2019-01-30T13:06:06.341Z,84.20
2019-01-30T13:08:36.275Z,82.80
2019-01-30T13:11:06.519Z,83.50
2019-01-30T13:13:36.572Z,81.70
2019-01-30T13:16:06.733Z,82.30
2019-01-30T13:18:36.803Z,80.60
2019-01-30T13:21:06.862Z,80.90
2019-01-30T13:23:36.786Z,80.20
2019-01-30T13:26:07.162Z,75.00
2019-01-30T13:28:37.103Z,77.60
2019-01-30T13:31:07.216Z,75.20
2019-01-30T13:33:37.149Z,73.70
2019-01-30T13:36:07.131Z,75.80
2019-01-30T13:38:37.148Z,79.50
2019-01-30T13:41:07.304Z,83.20
2019-01-30T13:43:37.208Z,86.40
2019-01-30T13:46:07.228Z,82.20
2019-01-30T13:48:37.229Z,81.40
2019-01-30T13:51:07.640Z,81.30
2019-01-30T13:53:37.726Z,79.10
2019-01-30T13:56:07.951Z,82.60
2019-01-30T13:58:38.871Z,83.90
2019-01-30T14:01:17.217Z,81.00
2019-01-30T14:03:40.497Z,83.60
2019-01-30T14:06:10.518Z,85.90
2019-01-30T14:08:40.516Z,82.80
2019-01-30T14:11:10.401Z,84.30
2019-01-30T14:13:40.310Z,81.10
2019-01-30T14:16:10.353Z,81.90
2019-01-30T14:18:40.288Z,84.20
2019-01-30T14:21:10.295Z,86.60
2019-01-30T14:23:40.508Z,84.70
2019-01-30T14:26:10.534Z,80.60
2019-01-30T14:28:41.384Z,86.50
2019-01-30T14:31:11.408Z,81.20
2019-01-30T14:33:41.530Z,80.70
2019-01-30T14:36:12.006Z,83.20
2019-01-30T14:38:42.039Z,85.00
2019-01-30T14:41:12.179Z,87.30
2019-01-30T14:43:42.136Z,87.60
2019-01-30T14:46:12.270Z,85.90
2019-01-30T14:48:42.336Z,91.10
2019-01-30T14:51:12.304Z,91.90
2019-01-30T14:53:42.223Z,84.30
2019-01-30T14:56:12.251Z,84.60
2019-01-30T14:58:42.402Z,84.50
2019-01-30T15:01:12.334Z,84.00
2019-01-30T15:03:42.294Z,83.40
2019-01-30T15:06:12.271Z,84.00
2019-01-30T15:08:42.196Z,83.10
2019-01-30T15:11:12.087Z,84.20
2019-01-30T15:13:41.988Z,88.70
2019-01-30T15:16:11.861Z,88.00
2019-01-30T15:18:41.815Z,87.70
2019-01-30T15:21:11.693Z,87.00
2019-01-30T15:23:41.693Z,90.70
2019-01-30T15:26:11.592Z,89.30
2019-01-30T15:28:41.597Z,87.70
2019-01-30T15:31:11.468Z,89.20
2019-01-30T15:33:41.319Z,90.00
2019-01-30T15:36:11.212Z,89.40
2019-01-30T15:38:41.147Z,91.00
2019-01-30T15:41:11.120Z,91.50
2019-01-30T15:43:42.131Z,92.30
2019-01-30T15:46:12.187Z,94.10
2019-01-30T15:48:42.192Z,94.70
2019-01-30T15:51:12.107Z,94.80
2019-01-30T15:53:41.975Z,95.80
2019-01-30T15:56:11.979Z,99.90
2019-01-30T15:58:41.948Z,98.90
2019-01-30T16:01:25.526Z,99.20
2019-01-30T16:03:55.519Z,97.20
2019-01-30T16:06:25.345Z,96.60
2019-01-30T16:08:55.360Z,96.20
2019-01-30T16:11:25.251Z,96.40
2019-01-30T16:13:55.172Z,98.70
2019-01-30T16:16:25.074Z,99.90
2019-01-30T16:18:55.157Z,98.40
2019-01-30T16:21:25.089Z,98.90
2019-01-30T16:23:55.081Z,99.80
2019-01-30T16:26:25.023Z,99.90
2019-01-30T16:28:55.000Z,99.90
2019-01-30T16:31:24.872Z,99.90
2019-01-30T16:33:54.765Z,99.90
2019-01-30T16:36:25.256Z,99.90
2019-01-30T16:38:55.364Z,99.90
2019-01-30T16:41:25.327Z,99.90
2019-01-30T16:43:55.313Z,99.90
2019-01-30T16:46:25.179Z,99.90
2019-01-30T16:48:55.095Z,99.60
2019-01-30T16:51:25.096Z,99.60
2019-01-30T16:53:55.147Z,98.40
2019-01-30T16:56:25.155Z,99.90
2019-01-30T16:58:57.373Z,99.90
2019-01-30T17:01:27.259Z,99.90
2019-01-30T17:03:57.145Z,99.90
2019-01-30T17:06:26.996Z,99.90
2019-01-30T17:08:57.106Z,99.90
2019-01-30T17:11:27.036Z,99.90
2019-01-30T17:13:56.991Z,99.90
2019-01-30T17:16:26.941Z,99.90
2019-01-30T17:18:57.893Z,99.90
2019-01-30T17:21:27.801Z,99.90
2019-01-30T17:23:57.692Z,99.90
2019-01-30T17:26:27.828Z,99.90
2019-01-30T17:28:57.723Z,99.90
2019-01-30T17:31:30.595Z,99.90
2019-01-30T17:34:00.631Z,99.90
2019-01-30T17:36:30.652Z,99.90
2019-01-30T17:39:00.739Z,99.90
2019-01-30T17:41:30.729Z,99.90
2019-01-30T17:44:00.728Z,99.90
2019-01-30T17:46:30.704Z,99.90
2019-01-30T17:49:00.633Z,99.90
2019-01-30T17:51:30.541Z,99.90
2019-01-30T17:54:00.456Z,99.90
2019-01-30T17:56:30.418Z,99.90
2019-01-30T17:59:00.388Z,99.90
2019-01-30T18:01:30.348Z,99.90
2019-01-30T18:04:00.321Z,99.90
2019-01-30T18:06:30.315Z,99.90
2019-01-30T18:09:00.474Z,99.90
2019-01-30T18:11:30.388Z,99.90
2019-01-30T18:14:00.459Z,99.90
2019-01-30T18:16:30.821Z,99.90
2019-01-30T18:19:02.040Z,99.90
2019-01-30T18:21:32.284Z,99.90
2019-01-30T18:24:02.505Z,99.90
2019-01-30T18:26:32.492Z,99.90
2019-01-30T18:29:02.584Z,99.90
2019-01-30T18:31:32.537Z,99.90
2019-01-30T18:34:03.013Z,99.90
2019-01-30T18:36:40.748Z,99.90
2019-01-30T18:39:06.217Z,99.90
2019-01-30T18:41:36.128Z,99.90
2019-01-30T18:44:06.284Z,99.90
2019-01-30T18:46:36.600Z,99.90
2019-01-30T18:49:06.810Z,99.90
2019-01-30T18:51:36.738Z,99.90
2019-01-30T18:54:06.808Z,99.90
2019-01-30T18:56:36.961Z,99.90
2019-01-30T18:59:07.171Z,99.90
2019-01-30T19:01:37.022Z,99.90
2019-01-30T19:04:07.049Z,99.90
2019-01-30T19:06:37.036Z,99.90
2019-01-30T19:09:10.929Z,99.90
2019-01-30T19:11:41.321Z,99.90
2019-01-30T19:14:11.943Z,99.90
2019-01-30T19:16:42.123Z,99.90
2019-01-30T19:19:12.439Z,99.90
2019-01-30T19:21:42.388Z,99.90
2019-01-30T19:24:12.352Z,99.90
2019-01-30T19:26:42.368Z,99.90
2019-01-30T19:29:12.556Z,99.90
2019-01-30T19:31:42.513Z,99.90
2019-01-30T19:34:12.470Z,99.90
2019-01-30T19:36:42.487Z,99.90
2019-01-30T19:39:12.431Z,99.90
2019-01-30T19:41:42.325Z,99.90
2019-01-30T19:44:12.683Z,99.90
2019-01-30T19:46:42.948Z,99.90
2019-01-30T19:49:13.079Z,99.90
2019-01-30T19:51:43.920Z,99.90
2019-01-30T19:54:14.339Z,99.90
2019-01-30T19:56:44.444Z,99.90
2019-01-30T19:59:17.650Z,99.90
2019-01-30T20:01:46.803Z,99.90
2019-01-30T20:04:17.052Z,99.90
2019-01-30T20:06:47.072Z,99.90
2019-01-30T20:09:18.578Z,99.90
2019-01-30T20:11:48.780Z,99.90
2019-01-30T20:14:18.817Z,99.90
2019-01-30T20:16:48.878Z,99.90
2019-01-30T20:19:18.899Z,99.90
2019-01-30T20:21:48.962Z,99.90
2019-01-30T20:24:19.553Z,99.90
2019-01-30T20:26:50.060Z,99.90
2019-01-30T20:29:21.400Z,99.90
2019-01-30T20:31:51.613Z,99.90
2019-01-30T20:34:21.711Z,99.90
2019-01-30T20:36:51.888Z,99.90
2019-01-30T20:39:22.102Z,99.90
2019-01-30T20:41:52.220Z,99.90
2019-01-30T20:44:22.548Z,99.90
2019-01-30T20:46:52.745Z,99.90
2019-01-30T20:49:22.966Z,99.90
2019-01-30T20:51:53.240Z,99.90
2019-01-30T20:54:23.096Z,99.90
2019-01-30T20:56:53.654Z,99.90
2019-01-30T20:59:23.613Z,99.90
2019-01-30T21:01:53.455Z,99.90
2019-01-30T21:04:23.300Z,99.90
2019-01-30T21:06:53.136Z,99.90
2019-01-30T21:09:23.052Z,99.90
2019-01-30T21:11:54.460Z,99.90
2019-01-30T21:14:24.464Z,99.90
2019-01-30T21:16:54.308Z,99.90
2019-01-30T21:19:24.576Z,99.90
2019-01-30T21:21:54.417Z,99.90
2019-01-30T21:24:24.268Z,99.90
2019-01-30T21:26:54.171Z,99.90
2019-01-30T21:29:24.116Z,99.90
2019-01-30T21:31:54.895Z,99.90
2019-01-30T21:34:24.908Z,99.90
2019-01-30T21:36:54.778Z,99.90
2019-01-30T21:39:24.699Z,99.90
2019-01-30T21:41:54.603Z,99.90
2019-01-30T21:44:24.604Z,99.90
2019-01-30T21:46:54.483Z,99.90
2019-01-30T21:49:24.347Z,99.90
2019-01-30T21:51:54.822Z,99.90
2019-01-30T21:54:24.747Z,99.90
2019-01-30T21:56:54.612Z,99.90
2019-01-30T21:59:24.519Z,99.90
2019-01-30T22:01:54.381Z,99.90
2019-01-30T22:04:24.224Z,99.90
2019-01-30T22:06:54.062Z,99.90
2019-01-30T22:09:24.912Z,99.90
2019-01-30T22:11:54.755Z,99.90
2019-01-30T22:14:24.703Z,99.90
2019-01-30T22:16:54.590Z,99.90
2019-01-30T22:19:24.452Z,99.90
2019-01-30T22:21:54.825Z,99.90
2019-01-30T22:24:24.756Z,99.90
2019-01-30T22:26:54.630Z,99.90
2019-01-30T22:29:24.523Z,99.90
2019-01-30T22:31:54.381Z,99.90
2019-01-30T22:34:24.228Z,99.90
2019-01-30T22:36:54.069Z,99.90
2019-01-30T22:39:23.986Z,99.90
2019-01-30T22:41:53.840Z,99.90
2019-01-30T22:44:23.807Z,99.90
2019-01-30T22:46:53.703Z,99.90
2019-01-30T22:49:23.668Z,99.90
2019-01-30T22:51:53.528Z,99.90
2019-01-30T22:54:23.472Z,99.90
2019-01-30T22:56:53.326Z,99.90
2019-01-30T22:59:23.191Z,99.90
2019-01-30T23:01:59.592Z,99.90
2019-01-30T23:05:18.979Z,99.90
2019-01-30T23:08:25.051Z,99.90
2019-01-30T23:11:20.628Z,99.90
2019-01-30T23:14:02.554Z,99.90
2019-01-30T23:17:13.227Z,99.90
2019-01-30T23:20:08.125Z,99.90
2019-01-30T23:23:18.956Z,99.90
2019-01-30T23:26:22.744Z,99.90
2019-01-30T23:29:33.582Z,99.90
2019-01-30T23:32:36.675Z,99.90
2019-01-30T23:35:37.904Z,99.90
2019-01-30T23:38:34.334Z,99.90
2019-01-30T23:41:26.168Z,99.90
2019-01-30T23:44:45.815Z,99.90
2019-01-30T23:47:52.460Z,99.90
2019-01-30T23:50:51.032Z,99.90
2019-01-30T23:54:01.744Z,99.90
2019-01-30T23:56:58.960Z,99.90
2019-01-30T23:59:59.696Z,99.90
